createdAt,value
2023-05-03T00:01:35.514Z,72.89
2023-05-03T00:04:03.695Z,73.10
2023-05-03T00:06:31.613Z,72.51
2023-05-03T00:08:59.442Z,73.18
2023-05-03T00:11:28.659Z,73.43
2023-05-03T00:13:56.440Z,73.48
2023-05-03T00:16:24.283Z,73.72
2023-05-03T00:18:52.191Z,74.37
2023-05-03T00:21:20.046Z,74.71
2023-05-03T00:23:48.063Z,75.24
2023-05-03T00:26:15.865Z,75.30
2023-05-03T00:28:45.211Z,76.26
2023-05-03T00:31:13.038Z,76.37
2023-05-03T00:33:41.101Z,76.85
2023-05-03T00:36:10.120Z,76.74
2023-05-03T00:38:38.186Z,77.32
2023-05-03T00:41:06.861Z,78.01
2023-05-03T00:43:37.880Z,78.22
2023-05-03T00:46:16.726Z,78.59
2023-05-03T00:48:46.075Z,78.39
2023-05-03T00:51:15.518Z,78.67
2023-05-03T00:53:43.941Z,78.76
2023-05-03T00:56:12.343Z,78.99
2023-05-03T00:58:40.726Z,79.21
2023-05-03T01:01:11.048Z,79.78
2023-05-03T01:03:41.959Z,79.91
2023-05-03T01:06:19.259Z,79.67
2023-05-03T01:08:52.651Z,80.07
2023-05-03T01:11:24.860Z,80.73
2023-05-03T01:13:57.448Z,81.04
2023-05-03T01:16:32.893Z,81.14
2023-05-03T01:19:05.600Z,81.08
2023-05-03T01:21:35.679Z,81.58
2023-05-03T01:24:08.867Z,81.63
2023-05-03T01:26:38.474Z,82.27
2023-05-03T01:29:06.738Z,81.92
2023-05-03T01:31:40.157Z,81.97
2023-05-03T01:34:24.681Z,82.59
2023-05-03T01:36:56.344Z,82.49
2023-05-03T01:39:27.185Z,82.53
2023-05-03T01:41:57.879Z,82.75
2023-05-03T01:44:26.657Z,83.44
2023-05-03T01:46:54.735Z,83.46
2023-05-03T01:49:22.475Z,83.42
2023-05-03T01:51:50.453Z,83.62
2023-05-03T01:54:19.167Z,83.69
2023-05-03T01:56:47.042Z,83.88
2023-05-03T01:59:17.524Z,84.24
2023-05-03T02:01:45.420Z,84.18
2023-05-03T02:04:13.239Z,84.61
2023-05-03T02:06:41.192Z,85.07
2023-05-03T02:09:09.324Z,84.67
2023-05-03T02:11:37.157Z,84.71
2023-05-03T02:14:05.092Z,85.21
2023-05-03T02:16:34.672Z,85.49
2023-05-03T02:19:02.528Z,85.63
2023-05-03T02:21:31.653Z,85.76
2023-05-03T02:23:59.867Z,86.18
2023-05-03T02:26:27.661Z,86.07
2023-05-03T02:28:55.986Z,86.50
2023-05-03T02:31:23.963Z,86.37
2023-05-03T02:33:55.088Z,86.62
2023-05-03T02:36:23.983Z,86.16
2023-05-03T02:38:52.014Z,86.82
2023-05-03T02:41:19.944Z,87.09
2023-05-03T02:43:48.296Z,87.05
2023-05-03T02:46:16.165Z,87.51
2023-05-03T02:48:43.986Z,87.21
2023-05-03T02:51:14.022Z,87.84
2023-05-03T02:53:41.898Z,88.12
2023-05-03T02:56:09.995Z,88.25
2023-05-03T02:58:37.868Z,88.92
2023-05-03T03:01:06.494Z,88.73
2023-05-03T03:03:34.753Z,88.39
2023-05-03T03:06:03.003Z,88.52
2023-05-03T03:08:32.206Z,88.83
2023-05-03T03:11:03.728Z,88.82
2023-05-03T03:13:31.932Z,89.26
2023-05-03T03:16:03.892Z,89.53
2023-05-03T03:18:31.942Z,88.94
2023-05-03T03:20:59.727Z,88.77
2023-05-03T03:23:28.755Z,89.05
2023-05-03T03:25:58.334Z,89.54
2023-05-03T03:28:27.448Z,90.13
2023-05-03T03:30:57.404Z,90.27
2023-05-03T03:33:26.677Z,90.63
2023-05-03T03:36:00.698Z,90.59
2023-05-03T03:38:33.414Z,90.87
2023-05-03T03:41:07.124Z,90.46
2023-05-03T03:43:36.402Z,90.72
2023-05-03T03:46:07.506Z,91.13
2023-05-03T03:48:35.951Z,91.08
2023-05-03T03:51:03.786Z,91.20
2023-05-03T03:53:38.519Z,91.93
2023-05-03T03:56:09.197Z,91.15
2023-05-03T03:58:37.286Z,91.76
2023-05-03T04:01:07.793Z,91.65
2023-05-03T04:03:36.549Z,92.08
2023-05-03T04:06:05.352Z,92.65
2023-05-03T04:08:33.384Z,92.53
2023-05-03T04:11:03.352Z,92.78
2023-05-03T04:13:37.316Z,93.32
2023-05-03T04:16:06.264Z,93.07
2023-05-03T04:18:38.354Z,93.35
2023-05-03T04:21:08.458Z,93.52
2023-05-03T04:23:37.196Z,93.48
2023-05-03T04:26:10.366Z,93.39
2023-05-03T04:28:47.148Z,93.82
2023-05-03T04:31:19.165Z,93.85
2023-05-03T04:33:46.995Z,94.09
2023-05-03T04:36:16.104Z,94.63
2023-05-03T04:38:47.083Z,95.34
2023-05-03T04:41:16.213Z,95.66
2023-05-03T04:43:46.156Z,95.13
2023-05-03T04:46:14.216Z,94.95
2023-05-03T04:48:42.161Z,95.97
2023-05-03T04:51:10.479Z,96.24
2023-05-03T04:53:38.727Z,95.79
2023-05-03T04:56:11.569Z,96.29
2023-05-03T04:58:41.601Z,96.27
2023-05-03T05:01:11.128Z,95.89
2023-05-03T05:03:39.631Z,95.90
2023-05-03T05:06:13.000Z,95.94
2023-05-03T05:08:44.974Z,96.31
2023-05-03T05:11:15.765Z,96.34
2023-05-03T05:13:44.060Z,96.11
2023-05-03T05:16:15.632Z,96.63
2023-05-03T05:18:49.752Z,96.32
2023-05-03T05:21:19.305Z,96.43
2023-05-03T05:23:47.251Z,96.51
2023-05-03T05:26:15.432Z,96.29
2023-05-03T05:28:43.829Z,96.24
2023-05-03T05:31:12.006Z,96.06
2023-05-03T05:33:41.355Z,96.22
2023-05-03T05:36:09.681Z,96.01
2023-05-03T05:38:38.232Z,95.46
2023-05-03T05:41:06.580Z,96.34
2023-05-03T05:43:34.475Z,95.43
2023-05-03T05:46:02.443Z,95.55
2023-05-03T05:48:31.205Z,95.61
2023-05-03T05:51:01.261Z,95.62
2023-05-03T05:53:29.712Z,95.64
2023-05-03T05:56:01.252Z,95.41
2023-05-03T05:58:31.852Z,95.32
2023-05-03T06:01:01.324Z,95.03
2023-05-03T06:03:31.723Z,95.42
2023-05-03T06:06:02.854Z,95.40
2023-05-03T06:08:31.021Z,95.15
2023-05-03T06:10:58.898Z,94.29
2023-05-03T06:13:28.637Z,94.15
2023-05-03T06:15:57.696Z,93.37
2023-05-03T06:18:25.753Z,93.02
2023-05-03T06:20:53.546Z,92.44
2023-05-03T06:23:23.589Z,92.21
2023-05-03T06:25:52.608Z,91.66
2023-05-03T06:28:21.215Z,91.47
2023-05-03T06:30:50.650Z,90.51
2023-05-03T06:33:18.837Z,90.13
2023-05-03T06:35:49.331Z,89.29
2023-05-03T06:38:19.488Z,89.20
2023-05-03T06:40:50.429Z,89.04
2023-05-03T06:43:18.194Z,88.77
2023-05-03T06:45:52.917Z,88.23
2023-05-03T06:48:21.682Z,88.28
2023-05-03T06:50:49.474Z,88.42
2023-05-03T06:53:17.303Z,87.93
2023-05-03T06:55:46.062Z,87.50
2023-05-03T06:58:15.883Z,87.09
2023-05-03T07:00:43.572Z,87.12
2023-05-03T07:03:11.428Z,86.86
2023-05-03T07:05:39.176Z,85.74
2023-05-03T07:08:06.929Z,85.38
2023-05-03T07:10:34.659Z,85.35
2023-05-03T07:13:02.274Z,85.00
2023-05-03T07:15:32.392Z,83.79
2023-05-03T07:18:00.258Z,83.16
2023-05-03T07:20:28.102Z,83.24
2023-05-03T07:22:55.855Z,83.31
2023-05-03T07:25:23.585Z,82.93
2023-05-03T07:27:51.430Z,82.33
2023-05-03T07:30:19.678Z,81.37
2023-05-03T07:32:48.832Z,80.21
2023-05-03T07:35:16.752Z,80.17
2023-05-03T07:37:44.875Z,79.15
2023-05-03T07:40:13.329Z,78.88
2023-05-03T07:42:41.352Z,78.49
2023-05-03T07:45:10.249Z,78.57
2023-05-03T07:47:39.878Z,78.38
2023-05-03T07:50:09.524Z,76.68
2023-05-03T07:52:38.186Z,77.14
2023-05-03T07:55:07.273Z,77.03
2023-05-03T07:57:34.930Z,76.58
2023-05-03T08:00:02.865Z,75.42
2023-05-03T08:02:40.337Z,74.54
2023-05-03T08:05:11.480Z,74.75
2023-05-03T08:07:39.246Z,73.81
2023-05-03T08:10:08.476Z,73.37
2023-05-03T08:12:37.106Z,72.78
2023-05-03T08:15:06.976Z,73.45
2023-05-03T08:17:41.404Z,70.45
2023-05-03T08:20:12.201Z,69.58
2023-05-03T08:22:41.462Z,67.82
2023-05-03T08:25:09.933Z,68.14
2023-05-03T08:27:38.338Z,68.13
2023-05-03T08:30:07.833Z,67.52
2023-05-03T08:32:35.714Z,67.51
2023-05-03T08:35:06.958Z,67.99
2023-05-03T08:37:40.938Z,67.10
2023-05-03T08:40:11.872Z,66.67
2023-05-03T08:42:41.515Z,67.01
2023-05-03T08:45:12.732Z,65.91
2023-05-03T08:47:41.818Z,65.16
2023-05-03T08:50:11.204Z,64.43
2023-05-03T08:52:40.846Z,63.58
2023-05-03T08:55:09.660Z,63.20
2023-05-03T08:57:37.687Z,63.29
2023-05-03T09:00:10.490Z,62.83
2023-05-03T09:02:40.056Z,61.56
2023-05-03T09:05:32.680Z,62.01
2023-05-03T09:08:06.331Z,59.75
2023-05-03T09:10:35.440Z,61.51
2023-05-03T09:13:03.778Z,61.50
2023-05-03T09:15:32.003Z,58.88
2023-05-03T09:18:13.996Z,59.78
2023-05-03T09:20:45.730Z,60.57
2023-05-03T09:23:14.726Z,58.03
2023-05-03T09:25:43.792Z,58.20
2023-05-03T09:28:11.576Z,58.60
2023-05-03T09:30:39.353Z,57.63
2023-05-03T09:33:08.067Z,58.40
2023-05-03T09:35:36.003Z,56.83
2023-05-03T09:38:03.762Z,56.77
2023-05-03T09:40:32.964Z,56.43
2023-05-03T09:43:10.351Z,55.49
2023-05-03T09:45:39.559Z,54.97
2023-05-03T09:48:08.827Z,54.19
2023-05-03T09:50:37.748Z,53.94
2023-05-03T09:53:08.276Z,53.74
2023-05-03T09:55:39.161Z,53.96
2023-05-03T09:58:08.027Z,52.34
2023-05-03T10:00:38.114Z,52.57
2023-05-03T10:03:10.718Z,54.03
2023-05-03T10:05:44.842Z,54.96
2023-05-03T10:08:16.174Z,55.82
2023-05-03T10:10:46.853Z,53.80
2023-05-03T10:13:14.870Z,54.65
2023-05-03T10:15:43.797Z,50.52
2023-05-03T10:18:16.350Z,51.58
2023-05-03T10:20:51.677Z,51.52
2023-05-03T10:23:19.451Z,51.17
2023-05-03T10:26:16.226Z,50.60
2023-05-03T10:28:44.496Z,51.53
2023-05-03T10:31:45.083Z,51.61
2023-05-03T10:34:23.396Z,50.55
2023-05-03T10:36:53.504Z,50.20
2023-05-03T10:39:21.546Z,50.06
2023-05-03T10:42:01.397Z,48.87
2023-05-03T10:44:37.252Z,47.88
2023-05-03T10:47:12.245Z,48.12
2023-05-03T10:49:39.943Z,46.91
2023-05-03T10:52:50.752Z,43.95
2023-05-03T10:55:20.842Z,44.88
2023-05-03T10:57:49.518Z,43.39
2023-05-03T11:00:23.228Z,42.78
2023-05-03T11:03:19.654Z,41.77
2023-05-03T11:05:49.121Z,41.81
2023-05-03T11:08:19.868Z,43.28
2023-05-03T11:10:49.494Z,42.52
2023-05-03T11:13:17.214Z,43.46
2023-05-03T11:15:46.908Z,45.13
2023-05-03T11:18:15.930Z,43.18
2023-05-03T11:20:43.590Z,42.21
2023-05-03T11:23:13.662Z,41.66
2023-05-03T11:25:42.615Z,42.14
2023-05-03T11:28:10.424Z,42.70
2023-05-03T11:30:38.486Z,40.24
2023-05-03T11:33:07.159Z,38.28
2023-05-03T11:35:34.980Z,39.78
2023-05-03T11:38:03.067Z,39.78
2023-05-03T11:40:31.572Z,41.46
2023-05-03T11:43:00.816Z,41.82
2023-05-03T11:45:32.582Z,41.51
2023-05-03T11:48:01.014Z,39.94
2023-05-03T11:50:44.367Z,39.76
2023-05-03T11:53:12.971Z,40.17
2023-05-03T11:55:42.273Z,38.74
2023-05-03T11:58:14.545Z,38.64
2023-05-03T12:00:45.205Z,35.21
2023-05-03T12:03:18.296Z,36.04
2023-05-03T12:05:48.289Z,35.21
2023-05-03T12:08:20.711Z,35.67
2023-05-03T12:10:51.032Z,34.58
2023-05-03T12:13:30.711Z,34.10
2023-05-03T12:16:11.619Z,34.46
2023-05-03T12:18:50.104Z,34.64
2023-05-03T12:23:50.740Z,34.94
2023-05-03T12:26:20.167Z,32.99
2023-05-03T12:28:50.623Z,32.69
2023-05-03T12:31:18.737Z,33.76
2023-05-03T12:34:00.692Z,34.08
2023-05-03T12:36:37.081Z,34.40
2023-05-03T12:39:09.165Z,34.40
2023-05-03T12:44:10.809Z,33.27
2023-05-03T12:46:39.320Z,35.16
2023-05-03T12:49:08.822Z,34.83
2023-05-03T12:51:41.000Z,35.47
2023-05-03T12:54:11.673Z,34.09
2023-05-03T12:56:41.248Z,33.45
2023-05-03T12:59:34.718Z,32.99
2023-05-03T13:07:01.564Z,28.38
2023-05-03T13:09:38.511Z,28.90
2023-05-03T13:12:20.381Z,30.61
2023-05-03T13:14:49.902Z,32.63
2023-05-03T13:17:18.470Z,32.42
2023-05-03T13:19:47.251Z,30.51
2023-05-03T13:22:15.921Z,30.62
2023-05-03T13:24:46.174Z,32.17
2023-05-03T13:27:14.242Z,32.37
2023-05-03T13:29:42.455Z,33.45
2023-05-03T13:32:12.417Z,33.60
2023-05-03T13:34:40.157Z,34.10
2023-05-03T13:37:07.804Z,32.22
2023-05-03T13:39:35.489Z,32.30
2023-05-03T13:42:03.504Z,31.93
2023-05-03T13:44:31.210Z,30.05
2023-05-03T13:46:58.898Z,31.17
2023-05-03T13:49:27.956Z,31.15
2023-05-03T13:51:55.638Z,31.33
2023-05-03T13:54:23.309Z,31.01
2023-05-03T13:56:51.008Z,31.43
2023-05-03T13:59:18.869Z,30.90
2023-05-03T14:01:48.091Z,28.19
2023-05-03T14:04:15.881Z,29.54
2023-05-03T14:06:44.836Z,30.34
2023-05-03T14:09:13.962Z,31.11
2023-05-03T14:11:42.113Z,31.27
2023-05-03T14:14:09.726Z,31.68
2023-05-03T14:16:41.345Z,30.91
2023-05-03T14:19:11.649Z,30.94
2023-05-03T14:21:39.849Z,31.08
2023-05-03T14:24:09.449Z,30.48
2023-05-03T14:26:38.585Z,29.08
2023-05-03T14:29:06.350Z,30.67
2023-05-03T14:31:34.493Z,29.50
2023-05-03T14:34:02.392Z,30.28
2023-05-03T14:36:34.669Z,30.84
2023-05-03T14:39:03.053Z,29.57
2023-05-03T14:41:33.480Z,30.50
2023-05-03T14:44:01.321Z,31.46
2023-05-03T14:46:29.037Z,31.78
2023-05-03T14:48:57.035Z,31.89
2023-05-03T14:51:24.934Z,29.00
2023-05-03T14:53:52.684Z,29.29
2023-05-03T14:56:20.312Z,30.58
2023-05-03T14:58:49.330Z,31.53
2023-05-03T15:01:20.923Z,31.76
2023-05-03T15:03:48.698Z,31.30
2023-05-03T15:06:23.632Z,32.38
2023-05-03T15:08:52.342Z,32.49
2023-05-03T15:11:20.236Z,32.77
2023-05-03T15:13:50.069Z,32.60
2023-05-03T15:16:17.918Z,33.08
2023-05-03T15:18:48.223Z,33.74
2023-05-03T15:21:16.774Z,33.02
2023-05-03T15:23:45.045Z,32.69
2023-05-03T15:26:13.264Z,32.06
2023-05-03T15:28:40.876Z,32.99
2023-05-03T15:31:10.440Z,32.05
2023-05-03T15:33:42.054Z,31.89
2023-05-03T15:36:11.322Z,32.51
2023-05-03T15:38:39.598Z,33.48
2023-05-03T15:41:07.868Z,34.34
2023-05-03T15:43:35.763Z,35.15
2023-05-03T15:46:03.615Z,35.56
2023-05-03T15:48:32.597Z,36.25
2023-05-03T15:51:00.328Z,36.53
2023-05-03T15:53:28.325Z,36.83
2023-05-03T15:55:57.556Z,37.38
2023-05-03T15:58:25.327Z,37.92
2023-05-03T16:00:54.345Z,36.00
2023-05-03T16:03:22.370Z,36.07
2023-05-03T16:05:51.364Z,36.64
2023-05-03T16:08:19.947Z,37.46
2023-05-03T16:10:47.542Z,37.33
2023-05-03T16:13:15.931Z,37.61
2023-05-03T16:15:44.602Z,37.77
2023-05-03T16:18:12.812Z,38.19
2023-05-03T16:20:41.291Z,38.82
2023-05-03T16:23:10.572Z,40.02
2023-05-03T16:25:38.284Z,40.31
2023-05-03T16:28:06.082Z,40.91
2023-05-03T16:30:34.996Z,40.52
2023-05-03T16:33:03.218Z,41.09
2023-05-03T16:35:30.881Z,41.87
2023-05-03T16:37:59.580Z,41.72
2023-05-03T16:40:28.918Z,42.42
2023-05-03T16:42:59.114Z,42.61
2023-05-03T16:45:26.977Z,43.22
2023-05-03T16:47:55.840Z,43.71
2023-05-03T16:50:23.809Z,43.62
2023-05-03T16:52:51.724Z,43.20
2023-05-03T16:55:24.471Z,43.48
2023-05-03T16:57:53.524Z,44.62
2023-05-03T17:00:21.935Z,43.93
2023-05-03T17:02:50.204Z,44.68
2023-05-03T17:05:20.306Z,44.78
2023-05-03T17:07:48.904Z,44.47
2023-05-03T17:10:16.640Z,42.90
2023-05-03T17:12:48.155Z,43.54
2023-05-03T17:15:17.614Z,45.16
2023-05-03T17:17:46.048Z,46.06
2023-05-03T17:20:14.525Z,46.40
2023-05-03T17:22:43.210Z,47.40
2023-05-03T17:25:11.593Z,47.86
2023-05-03T17:27:39.975Z,47.66
2023-05-03T17:30:09.681Z,47.93
2023-05-03T17:32:38.837Z,47.63
2023-05-03T17:35:07.922Z,48.56
2023-05-03T17:37:35.766Z,47.61
2023-05-03T17:40:05.124Z,47.68
2023-05-03T17:42:33.544Z,48.03
2023-05-03T17:45:01.742Z,48.75
2023-05-03T17:47:29.566Z,49.34
2023-05-03T17:49:58.664Z,49.60
2023-05-03T17:52:26.339Z,49.12
2023-05-03T17:54:54.921Z,49.81
2023-05-03T17:57:22.662Z,49.96
2023-05-03T17:59:51.762Z,50.01
2023-05-03T18:02:19.617Z,50.11
2023-05-03T18:04:47.881Z,50.66
2023-05-03T18:07:17.126Z,51.20
2023-05-03T18:09:44.928Z,50.69
2023-05-03T18:12:13.884Z,50.97
2023-05-03T18:14:41.585Z,51.71
2023-05-03T18:17:09.240Z,52.46
2023-05-03T18:19:37.202Z,53.71
2023-05-03T18:22:06.634Z,53.77
2023-05-03T18:24:35.701Z,54.43
2023-05-03T18:27:03.492Z,54.66
2023-05-03T18:29:31.179Z,54.82
2023-05-03T18:31:59.003Z,55.68
2023-05-03T18:34:27.710Z,56.63
2023-05-03T18:36:55.411Z,56.26
2023-05-03T18:39:23.147Z,57.17
2023-05-03T18:41:52.179Z,57.06
2023-05-03T18:44:23.923Z,58.11
2023-05-03T18:46:51.727Z,58.23
2023-05-03T18:49:19.721Z,59.03
2023-05-03T18:51:47.393Z,58.97
2023-05-03T18:54:15.212Z,59.88
2023-05-03T18:56:42.859Z,59.80
2023-05-03T18:59:11.883Z,60.58
2023-05-03T19:01:39.545Z,61.24
2023-05-03T19:04:07.941Z,60.85
2023-05-03T19:06:36.155Z,60.88
2023-05-03T19:09:04.320Z,61.79
2023-05-03T19:11:32.257Z,61.36
2023-05-03T19:14:00.021Z,61.25
2023-05-03T19:16:29.209Z,61.54
2023-05-03T19:18:56.989Z,61.91
2023-05-03T19:21:25.777Z,62.74
2023-05-03T19:23:53.457Z,63.79
2023-05-03T19:26:21.707Z,64.60
2023-05-03T19:28:49.386Z,64.98
2023-05-03T19:31:17.744Z,64.96
2023-05-03T19:33:46.886Z,65.09
2023-05-03T19:36:15.025Z,65.18
2023-05-03T19:38:42.719Z,64.97
2023-05-03T19:41:12.244Z,65.51
2023-05-03T19:43:40.075Z,65.77
2023-05-03T19:46:08.348Z,65.79
2023-05-03T19:48:36.595Z,66.00
2023-05-03T19:51:06.103Z,66.25
2023-05-03T19:53:34.298Z,66.82
2023-05-03T19:56:03.819Z,66.96
2023-05-03T19:58:33.299Z,66.98
2023-05-03T20:01:05.204Z,67.77
2023-05-03T20:03:33.254Z,68.13
2023-05-03T20:06:01.498Z,68.05
2023-05-03T20:08:31.407Z,69.27
2023-05-03T20:10:59.175Z,69.32
2023-05-03T20:13:27.720Z,69.65
2023-05-03T20:15:55.472Z,69.53
2023-05-03T20:18:23.469Z,70.13
2023-05-03T20:20:51.117Z,70.45
2023-05-03T20:23:18.860Z,70.51
2023-05-03T20:25:47.907Z,70.84
2023-05-03T20:28:15.644Z,71.13
2023-05-03T20:30:43.629Z,71.33
2023-05-03T20:33:11.575Z,72.25
2023-05-03T20:35:39.347Z,72.52
2023-05-03T20:38:07.124Z,72.95
2023-05-03T20:40:35.459Z,73.38
2023-05-03T20:43:04.687Z,73.74
2023-05-03T20:45:32.899Z,73.81
2023-05-03T20:48:00.700Z,74.00
2023-05-03T20:50:28.399Z,74.98
2023-05-03T20:52:56.431Z,75.43
2023-05-03T20:55:24.091Z,75.19
2023-05-03T20:57:51.744Z,75.79
2023-05-03T21:00:22.140Z,75.84
2023-05-03T21:02:53.501Z,76.00
2023-05-03T21:05:21.823Z,76.09
2023-05-03T21:07:49.861Z,76.78
2023-05-03T21:10:17.541Z,76.44
2023-05-03T21:12:45.378Z,76.73
2023-05-03T21:15:13.225Z,77.08
2023-05-03T21:17:42.280Z,76.92
2023-05-03T21:20:11.444Z,77.23
2023-05-03T21:22:39.125Z,77.43
2023-05-03T21:25:08.824Z,77.59
2023-05-03T21:27:36.523Z,77.66
2023-05-03T21:30:04.552Z,77.96
2023-05-03T21:32:33.289Z,78.20
2023-05-03T21:35:10.568Z,78.37
2023-05-03T21:37:38.547Z,78.39
2023-05-03T21:40:33.219Z,78.78
2023-05-03T21:43:00.959Z,78.88
2023-05-03T21:45:28.633Z,79.42
2023-05-03T21:47:56.690Z,79.31
2023-05-03T21:50:26.082Z,79.77
2023-05-03T21:52:54.130Z,80.09
2023-05-03T21:55:21.960Z,80.37
2023-05-03T21:57:49.811Z,80.74
2023-05-03T22:00:20.454Z,80.81
2023-05-03T22:02:48.609Z,81.12
2023-05-03T22:05:16.437Z,80.97
2023-05-03T22:07:45.438Z,81.25
2023-05-03T22:10:13.137Z,80.77
2023-05-03T22:12:41.044Z,80.98
2023-05-03T22:15:10.197Z,81.44
2023-05-03T22:17:38.080Z,82.06
2023-05-03T22:20:07.495Z,82.19
2023-05-03T22:22:35.541Z,82.25
2023-05-03T22:25:04.878Z,82.53
2023-05-03T22:27:32.582Z,82.66
2023-05-03T22:30:00.335Z,83.05
2023-05-03T22:32:28.033Z,82.65
2023-05-03T22:34:55.739Z,82.98
2023-05-03T22:37:23.434Z,82.99
2023-05-03T22:39:51.126Z,83.13
2023-05-03T22:42:20.173Z,83.06
2023-05-03T22:44:47.811Z,83.60
2023-05-03T22:47:15.671Z,83.87
2023-05-03T22:49:43.459Z,84.19
2023-05-03T22:52:11.370Z,84.00
2023-05-03T22:54:39.078Z,84.26
2023-05-03T22:57:06.957Z,84.40
2023-05-03T22:59:36.286Z,84.44
2023-05-03T23:02:10.004Z,84.80
2023-05-03T23:04:37.705Z,84.62
2023-05-03T23:07:05.785Z,84.76
2023-05-03T23:09:33.434Z,85.03
2023-05-03T23:12:02.273Z,85.40
2023-05-03T23:14:29.930Z,85.33
2023-05-03T23:16:59.363Z,85.15
2023-05-03T23:19:27.272Z,85.74
2023-05-03T23:21:54.994Z,85.51
2023-05-03T23:24:22.989Z,85.61
2023-05-03T23:26:50.709Z,85.58
2023-05-03T23:29:18.760Z,86.03
2023-05-03T23:31:46.842Z,86.47
2023-05-03T23:34:16.370Z,87.00
2023-05-03T23:36:44.273Z,86.78
2023-05-03T23:39:12.729Z,86.97
2023-05-03T23:41:40.404Z,87.35
2023-05-03T23:44:08.340Z,87.40
2023-05-03T23:46:36.071Z,87.57
2023-05-03T23:49:04.096Z,87.55
2023-05-03T23:51:33.126Z,87.76
2023-05-03T23:54:01.025Z,87.75
2023-05-03T23:56:29.465Z,88.02
2023-05-03T23:58:57.120Z,88.34
